createdAt,value
2022-09-09T00:09:19.293Z,95243.84
2022-09-09T00:11:53.448Z,95237.09
2022-09-09T00:14:29.479Z,95235.53
2022-09-09T00:17:03.164Z,95227.81
2022-09-09T00:19:41.091Z,95235.19
2022-09-09T00:22:18.299Z,95226.81
2022-09-09T00:24:49.856Z,95226.47
2022-09-09T00:27:26.403Z,95226.09
2022-09-09T00:29:57.996Z,95222.78
2022-09-09T00:32:31.290Z,95218.50
2022-09-09T00:35:03.426Z,95216.88
2022-09-09T00:37:34.463Z,95218.41
2022-09-09T00:40:10.678Z,95217.41
2022-09-09T00:42:43.781Z,95226.28
2022-09-09T00:45:40.106Z,95229.47
2022-09-09T00:48:12.888Z,95224.59
2022-09-09T00:50:51.356Z,95234.28
2022-09-09T00:53:32.913Z,95228.34
2022-09-09T00:56:11.425Z,95231.84
2022-09-09T00:58:39.091Z,95227.84
2022-09-09T01:01:10.806Z,95232.00
2022-09-09T01:03:40.327Z,95230.38
2022-09-09T01:06:17.594Z,95231.00
2022-09-09T01:09:03.608Z,95231.19
2022-09-09T01:11:43.742Z,95232.94
2022-09-09T01:14:32.637Z,95226.94
2022-09-09T01:17:06.444Z,95239.56
2022-09-09T01:19:52.531Z,95229.44
2022-09-09T01:22:28.381Z,95229.34
2022-09-09T01:25:17.653Z,95228.63
2022-09-09T01:27:50.217Z,95229.44
2022-09-09T01:30:20.069Z,95228.88
2022-09-09T01:32:50.719Z,95227.25
2022-09-09T01:35:31.663Z,95225.25
2022-09-09T01:37:59.658Z,95231.13
2022-09-09T01:40:28.020Z,95230.66
2022-09-09T01:42:57.725Z,95221.47
2022-09-09T01:45:25.993Z,95222.78
2022-09-09T01:47:54.677Z,95241.84
2022-09-09T01:50:23.305Z,95230.97
2022-09-09T01:52:55.100Z,95227.59
2022-09-09T01:55:30.047Z,95225.63
2022-09-09T01:58:11.811Z,95229.34
2022-09-09T02:00:45.791Z,95227.41
2022-09-09T02:03:22.031Z,95220.25
2022-09-09T02:05:58.340Z,95217.97
2022-09-09T02:08:30.884Z,95228.69
2022-09-09T02:11:03.787Z,95222.59
2022-09-09T02:13:36.947Z,95224.06
2022-09-09T02:16:09.641Z,95221.06
2022-09-09T02:18:43.160Z,95223.53
2022-09-09T02:21:14.687Z,95210.69
2022-09-09T02:23:45.509Z,95215.06
2022-09-09T02:26:20.572Z,95208.97
2022-09-09T02:28:51.795Z,95215.16
2022-09-09T02:31:23.519Z,95218.59
2022-09-09T02:33:58.236Z,95216.16
2022-09-09T02:36:30.096Z,95212.03
2022-09-09T02:38:59.078Z,95209.94
2022-09-09T02:41:32.560Z,95204.09
2022-09-09T02:44:01.831Z,95206.00
2022-09-09T02:46:50.624Z,95212.25
2022-09-09T02:49:26.269Z,95207.38
2022-09-09T02:52:02.742Z,95210.16
2022-09-09T02:54:33.105Z,95209.06
2022-09-09T02:57:06.004Z,95206.88
2022-09-09T02:59:35.633Z,95215.66
2022-09-09T03:02:03.717Z,95216.00
2022-09-09T03:04:32.099Z,95210.91
2022-09-09T03:07:00.606Z,95197.56
2022-09-09T03:09:28.338Z,95210.28
2022-09-09T03:11:56.546Z,95203.19
2022-09-09T03:14:26.049Z,95207.81
2022-09-09T03:16:57.332Z,95202.28
2022-09-09T03:19:25.547Z,95203.88
2022-09-09T03:21:53.123Z,95206.03
2022-09-09T03:24:20.756Z,95200.19
2022-09-09T03:26:48.394Z,95205.28
2022-09-09T03:29:16.490Z,95198.38
2022-09-09T03:31:44.143Z,95205.13
2022-09-09T03:34:14.582Z,95206.78
2022-09-09T03:36:42.432Z,95196.47
2022-09-09T03:39:10.118Z,95197.81
2022-09-09T03:41:38.258Z,95199.91
2022-09-09T03:44:05.966Z,95199.28
2022-09-09T03:46:34.871Z,95200.63
2022-09-09T03:49:02.489Z,95201.72
2022-09-09T03:51:31.460Z,95196.94
2022-09-09T03:53:59.667Z,95191.63
2022-09-09T03:56:27.242Z,95193.19
2022-09-09T03:58:54.950Z,95201.72
2022-09-09T04:01:22.647Z,95191.91
2022-09-09T04:03:51.300Z,95194.25
2022-09-09T04:06:19.182Z,95188.22
2022-09-09T04:08:49.570Z,95187.59
2022-09-09T04:11:17.406Z,95183.97
2022-09-09T04:13:45.488Z,95191.19
2022-09-09T04:16:14.247Z,95185.47
2022-09-09T04:18:42.569Z,95182.22
2022-09-09T04:21:13.148Z,95178.34
2022-09-09T04:23:41.535Z,95177.00
2022-09-09T04:26:10.980Z,95177.00
2022-09-09T04:28:39.225Z,95179.59
2022-09-09T04:31:08.710Z,95164.78
2022-09-09T04:33:40.183Z,95163.06
2022-09-09T04:36:08.862Z,95160.44
2022-09-09T04:38:36.614Z,95167.78
2022-09-09T04:41:04.327Z,95159.28
2022-09-09T04:43:33.314Z,95164.69
2022-09-09T04:46:01.050Z,95178.97
2022-09-09T04:48:28.832Z,95177.50
2022-09-09T04:50:57.780Z,95174.47
2022-09-09T04:53:26.369Z,95163.31
2022-09-09T04:55:54.438Z,95163.81
2022-09-09T04:58:23.467Z,95155.50
2022-09-09T05:00:53.001Z,95161.22
2022-09-09T05:03:20.880Z,95163.16
2022-09-09T05:05:48.444Z,95159.88
2022-09-09T05:08:16.373Z,95160.50
2022-09-09T05:10:43.945Z,95168.94
2022-09-09T05:13:12.303Z,95177.66
2022-09-09T05:15:39.888Z,95164.84
2022-09-09T05:18:09.652Z,95184.91
2022-09-09T05:20:37.395Z,95180.34
2022-09-09T05:23:04.993Z,95178.41
2022-09-09T05:25:32.644Z,95179.28
2022-09-09T05:28:00.662Z,95185.13
2022-09-09T05:30:28.214Z,95184.47
2022-09-09T05:32:58.191Z,95184.34
2022-09-09T05:35:27.758Z,95195.25
2022-09-09T05:37:56.981Z,95186.34
2022-09-09T05:40:24.557Z,95188.34
2022-09-09T05:42:52.163Z,95191.91
2022-09-09T05:45:20.618Z,95184.13
2022-09-09T05:47:54.446Z,95181.50
2022-09-09T05:50:22.020Z,95195.09
2022-09-09T05:52:50.934Z,95187.69
2022-09-09T05:55:19.638Z,95195.59
2022-09-09T05:57:52.834Z,95189.69
2022-09-09T06:00:20.771Z,95196.47
2022-09-09T06:02:53.493Z,95185.94
2022-09-09T06:05:23.768Z,95205.19
2022-09-09T06:07:55.937Z,95210.44
2022-09-09T06:10:23.775Z,95211.25
2022-09-09T06:12:54.746Z,95215.34
2022-09-09T06:15:22.362Z,95212.44
2022-09-09T06:17:56.351Z,95202.81
2022-09-09T06:20:24.010Z,95202.81
2022-09-09T06:22:51.560Z,95198.97
2022-09-09T06:25:26.246Z,95207.00
2022-09-09T06:27:53.786Z,95210.00
2022-09-09T06:30:21.664Z,95205.94
2022-09-09T06:32:50.835Z,95200.25
2022-09-09T06:35:18.435Z,95198.94
2022-09-09T06:37:49.771Z,95197.63
2022-09-09T06:40:17.482Z,95205.13
2022-09-09T06:42:46.475Z,95202.44
2022-09-09T06:45:14.112Z,95208.66
2022-09-09T06:47:42.089Z,95204.16
2022-09-09T06:50:11.273Z,95207.50
2022-09-09T06:52:39.524Z,95212.25
2022-09-09T06:55:08.018Z,95217.00
2022-09-09T06:57:37.926Z,95212.38
2022-09-09T07:00:08.985Z,95219.41
2022-09-09T07:02:40.108Z,95216.25
2022-09-09T07:05:09.106Z,95215.41
2022-09-09T07:07:37.580Z,95211.19
2022-09-09T07:10:06.079Z,95214.50
2022-09-09T07:12:33.634Z,95216.31
2022-09-09T07:15:01.239Z,95226.84
2022-09-09T07:17:30.945Z,95223.69
2022-09-09T07:19:58.808Z,95236.53
2022-09-09T07:22:26.464Z,95260.69
2022-09-09T07:24:54.014Z,95281.31
2022-09-09T07:27:22.147Z,95265.38
2022-09-09T07:29:49.766Z,95257.16
2022-09-09T07:32:17.609Z,95266.28
2022-09-09T07:34:47.204Z,95266.81
2022-09-09T07:37:14.827Z,95263.66
2022-09-09T07:39:43.065Z,95263.00
2022-09-09T07:42:12.138Z,95273.47
2022-09-09T07:44:40.750Z,95270.44
2022-09-09T07:47:08.392Z,95281.09
2022-09-09T07:49:36.058Z,95283.72
2022-09-09T07:52:05.084Z,95279.16
2022-09-09T07:54:33.771Z,95279.94
2022-09-09T07:57:01.361Z,95289.31
2022-09-09T07:59:31.285Z,95283.53
2022-09-09T08:01:59.481Z,95295.00
2022-09-09T08:04:29.105Z,95283.50
2022-09-09T08:06:58.996Z,95285.59
2022-09-09T08:09:29.932Z,95279.47
2022-09-09T08:11:59.215Z,95279.28
2022-09-09T08:14:27.150Z,95283.06
2022-09-09T08:16:55.383Z,95297.06
2022-09-09T08:19:23.620Z,95296.00
2022-09-09T08:21:51.271Z,95308.81
2022-09-09T08:24:20.550Z,95313.59
2022-09-09T08:26:50.878Z,95311.94
2022-09-09T08:29:19.587Z,95311.13
2022-09-09T08:31:49.367Z,95307.63
2022-09-09T08:34:18.611Z,95306.81
2022-09-09T08:36:47.514Z,95316.69
2022-09-09T08:39:17.481Z,95313.84
2022-09-09T08:42:32.211Z,95323.25
2022-09-09T08:45:14.342Z,95317.31
2022-09-09T08:47:52.536Z,95320.78
2022-09-09T08:50:25.619Z,95328.06
2022-09-09T08:53:03.526Z,95322.56
2022-09-09T08:55:42.443Z,95324.41
2022-09-09T08:58:16.136Z,95321.25
2022-09-09T09:01:01.228Z,95320.91
2022-09-09T09:03:37.226Z,95310.38
2022-09-09T09:06:13.487Z,95320.50
2022-09-09T09:08:50.584Z,95317.41
2022-09-09T09:11:18.243Z,95314.66
2022-09-09T09:13:52.558Z,95308.41
2022-09-09T09:16:26.396Z,95315.66
2022-09-09T09:18:55.974Z,95304.28
2022-09-09T09:21:36.187Z,95301.03
2022-09-09T09:24:07.428Z,95307.28
2022-09-09T09:26:37.443Z,95312.72
2022-09-09T09:29:13.741Z,95314.97
2022-09-09T09:31:43.923Z,95313.38
2022-09-09T09:34:12.202Z,95313.03
2022-09-09T09:36:43.448Z,95325.56
2022-09-09T09:42:06.419Z,95324.97
2022-09-09T09:44:38.128Z,95320.22
2022-09-09T09:47:11.800Z,95320.66
2022-09-09T09:49:40.306Z,95322.66
2022-09-09T09:52:09.148Z,95313.69
2022-09-09T09:54:43.553Z,95324.44
2022-09-09T09:57:13.155Z,95323.59
2022-09-09T09:59:42.511Z,95325.56
2022-09-09T10:02:19.096Z,95324.28
2022-09-09T10:04:47.666Z,95330.00
2022-09-09T10:07:20.375Z,95331.50
2022-09-09T10:09:53.404Z,95322.19
2022-09-09T10:12:32.803Z,95323.28
2022-09-09T10:15:09.202Z,95319.56
2022-09-09T10:17:46.713Z,95313.03
2022-09-09T10:20:24.927Z,95316.47
2022-09-09T10:22:54.562Z,95324.72
2022-09-09T10:25:45.218Z,95319.03
2022-09-09T10:28:35.173Z,95320.47
2022-09-09T10:31:18.428Z,95324.78
2022-09-09T10:33:53.157Z,95320.03
2022-09-09T10:36:23.457Z,95325.47
2022-09-09T10:38:58.801Z,95320.22
2022-09-09T10:41:42.061Z,95319.81
2022-09-09T10:44:24.761Z,95330.22
2022-09-09T10:47:09.854Z,95330.69
2022-09-09T10:50:01.043Z,95332.25
2022-09-09T10:52:38.637Z,95330.63
2022-09-09T10:55:16.113Z,95324.69
2022-09-09T10:57:48.785Z,95334.00
2022-09-09T11:00:20.402Z,95323.22
2022-09-09T11:02:53.531Z,95325.00
2022-09-09T11:05:23.884Z,95317.63
2022-09-09T11:07:57.590Z,95322.56
2022-09-09T11:10:31.325Z,95326.50
2022-09-09T11:13:05.035Z,95319.56
2022-09-09T11:15:41.869Z,95319.78
2022-09-09T11:18:15.921Z,95318.28
2022-09-09T11:20:45.050Z,95321.03
2022-09-09T11:23:16.916Z,95321.47
2022-09-09T11:25:51.895Z,95324.13
2022-09-09T11:28:48.560Z,95324.59
2022-09-09T11:31:33.971Z,95319.75
2022-09-09T11:34:19.743Z,95315.13
2022-09-09T11:36:59.588Z,95321.25
2022-09-09T11:39:52.058Z,95317.03
2022-09-09T11:42:21.998Z,95320.22
2022-09-09T11:44:49.715Z,95312.34
2022-09-09T11:47:25.626Z,95309.16
2022-09-09T11:49:55.108Z,95316.53
2022-09-09T11:52:26.611Z,95312.81
2022-09-09T11:54:58.073Z,95306.81
2022-09-09T11:57:32.832Z,95312.34
2022-09-09T12:00:00.982Z,95311.69
2022-09-09T12:02:32.006Z,95311.16
2022-09-09T12:05:06.564Z,95317.34
2022-09-09T12:07:37.847Z,95314.16
2022-09-09T12:10:21.206Z,95317.97
2022-09-09T12:12:48.992Z,95317.25
2022-09-09T12:15:24.224Z,95322.53
2022-09-09T12:17:54.238Z,95302.91
2022-09-09T12:20:25.789Z,95311.56
2022-09-09T12:23:20.132Z,95312.38
2022-09-09T12:25:59.449Z,95304.06
2022-09-09T12:28:35.010Z,95301.78
2022-09-09T12:31:11.091Z,95297.34
2022-09-09T12:33:44.093Z,95303.88
2022-09-09T12:36:15.652Z,95299.97
2022-09-09T12:38:45.069Z,95296.72
2022-09-09T12:41:21.873Z,95292.66
2022-09-09T12:43:50.842Z,95288.16
2022-09-09T12:46:27.416Z,95291.81
2022-09-09T12:48:56.715Z,95286.34
2022-09-09T12:51:30.335Z,95284.81
2022-09-09T12:53:58.887Z,95283.81
2022-09-09T12:56:29.299Z,95281.66
2022-09-09T12:58:59.213Z,95274.81
2022-09-09T13:01:29.800Z,95277.16
2022-09-09T13:03:57.748Z,95273.34
2022-09-09T13:06:29.256Z,95280.63
2022-09-09T13:08:59.538Z,95272.44
2022-09-09T13:11:29.867Z,95269.56
2022-09-09T13:14:04.573Z,95267.75
2022-09-09T13:16:42.118Z,95268.19
2022-09-09T13:19:30.592Z,95257.44
2022-09-09T13:22:00.073Z,95256.47
2022-09-09T13:24:32.107Z,95256.91
2022-09-09T13:27:02.789Z,95249.38
2022-09-09T13:29:31.536Z,95244.00
2022-09-09T13:32:07.130Z,95247.66
2022-09-09T13:34:37.194Z,95248.28
2022-09-09T13:37:08.156Z,95251.38
2022-09-09T13:39:38.125Z,95242.66
2022-09-09T13:42:07.919Z,95243.19
2022-09-09T13:44:39.065Z,95236.84
2022-09-09T13:47:10.699Z,95234.94
2022-09-09T13:49:38.749Z,95242.38
2022-09-09T13:52:13.047Z,95244.09
2022-09-09T13:54:40.664Z,95239.28
2022-09-09T13:57:17.039Z,95235.38
2022-09-09T14:00:03.722Z,95227.81
2022-09-09T14:02:32.778Z,95227.16
2022-09-09T14:05:00.679Z,95227.81
2022-09-09T14:07:29.941Z,95230.25
2022-09-09T14:09:57.568Z,95236.25
2022-09-09T14:12:26.014Z,95234.78
2022-09-09T14:14:54.008Z,95236.97
2022-09-09T14:17:23.253Z,95229.53
2022-09-09T14:19:50.854Z,95236.28
2022-09-09T14:22:18.484Z,95236.47
2022-09-09T14:24:47.614Z,95246.63
2022-09-09T14:27:15.317Z,95245.25
2022-09-09T14:29:44.534Z,95235.31
2022-09-09T14:32:12.972Z,95234.19
2022-09-09T14:34:41.498Z,95242.19
2022-09-09T14:37:09.112Z,95243.66
2022-09-09T14:39:36.733Z,95251.50
2022-09-09T14:42:06.359Z,95246.69
2022-09-09T14:44:34.616Z,95248.16
2022-09-09T14:47:02.344Z,95249.66
2022-09-09T14:49:29.902Z,95261.28
2022-09-09T14:51:57.533Z,95250.66
2022-09-09T14:54:25.162Z,95261.28
2022-09-09T14:56:52.784Z,95262.09
2022-09-09T14:59:23.166Z,95266.47
2022-09-09T15:01:51.023Z,95257.25
2022-09-09T15:04:20.198Z,95258.66
2022-09-09T15:06:49.221Z,95257.66
2022-09-09T15:09:17.125Z,95252.19
2022-09-09T15:11:45.298Z,95244.13
2022-09-09T15:14:13.257Z,95249.03
2022-09-09T15:16:42.588Z,95249.84
2022-09-09T15:19:10.900Z,95251.59
2022-09-09T15:21:39.001Z,95243.84
2022-09-09T15:24:09.359Z,95240.59
2022-09-09T15:26:39.614Z,95234.34
2022-09-09T15:29:08.409Z,95249.31
2022-09-09T15:31:36.404Z,95236.50
2022-09-09T15:34:07.511Z,95233.50
2022-09-09T15:36:37.478Z,95236.06
2022-09-09T15:39:07.508Z,95231.75
2022-09-09T15:41:35.761Z,95222.69
2022-09-09T15:44:03.808Z,95229.34
2022-09-09T15:46:33.926Z,95218.25
2022-09-09T15:49:07.654Z,95222.56
2022-09-09T15:51:42.820Z,95212.47
2022-09-09T15:54:13.276Z,95217.94
2022-09-09T15:56:41.488Z,95212.56
2022-09-09T15:59:09.355Z,95213.66
2022-09-09T16:01:37.389Z,95213.56
2022-09-09T16:04:07.325Z,95212.50
2022-09-09T16:06:35.331Z,95204.41
2022-09-09T16:09:06.198Z,95210.28
2022-09-09T16:11:36.534Z,95208.63
2022-09-09T16:14:06.336Z,95215.88
2022-09-09T16:16:37.073Z,95213.72
2022-09-09T16:19:08.056Z,95212.53
2022-09-09T16:21:38.412Z,95208.22
2022-09-09T16:24:07.723Z,95211.81
2022-09-09T16:26:37.383Z,95211.63
2022-09-09T16:29:05.719Z,95204.34
2022-09-09T16:31:34.138Z,95203.72
2022-09-09T16:34:02.142Z,95204.53
2022-09-09T16:36:32.918Z,95203.81
2022-09-09T16:39:01.947Z,95200.75
2022-09-09T16:41:31.014Z,95199.09
2022-09-09T16:44:00.087Z,95195.31
2022-09-09T16:46:29.261Z,95190.78
2022-09-09T16:48:59.281Z,95180.91
2022-09-09T16:51:29.732Z,95185.56
2022-09-09T16:54:01.208Z,95188.28
2022-09-09T16:56:32.423Z,95200.00
2022-09-09T16:59:02.100Z,95207.19
2022-09-09T17:01:32.348Z,95207.19
2022-09-09T17:04:02.789Z,95203.66
2022-09-09T17:06:31.771Z,95208.72
2022-09-09T17:09:03.508Z,95203.53
2022-09-09T17:11:31.908Z,95204.69
2022-09-09T17:14:01.120Z,95205.91
2022-09-09T17:16:31.063Z,95197.44
2022-09-09T17:19:00.564Z,95206.16
2022-09-09T17:21:29.992Z,95203.09
2022-09-09T17:23:58.564Z,95210.88
2022-09-09T17:26:29.981Z,95208.06
2022-09-09T17:29:00.706Z,95203.38
2022-09-09T17:31:30.546Z,95213.34
2022-09-09T17:33:59.639Z,95208.53
2022-09-09T17:36:29.380Z,95196.53
2022-09-09T17:38:57.121Z,95214.50
2022-09-09T17:41:28.745Z,95206.16
2022-09-09T17:43:58.048Z,95210.28
2022-09-09T17:46:27.384Z,95216.19
2022-09-09T17:48:58.728Z,95221.72
2022-09-09T17:51:28.810Z,95217.97
2022-09-09T17:53:59.355Z,95232.56
2022-09-09T17:56:31.644Z,95225.19
2022-09-09T17:59:03.630Z,95229.09
2022-09-09T18:01:40.470Z,95229.44
2022-09-09T18:04:10.052Z,95228.66
2022-09-09T18:06:39.696Z,95228.31
2022-09-09T18:09:09.515Z,95238.22
2022-09-09T18:11:43.862Z,95247.56
2022-09-09T18:14:13.418Z,95235.88
2022-09-09T18:16:42.099Z,95241.81
2022-09-09T18:19:15.238Z,95232.91
2022-09-09T18:21:44.916Z,95238.34
2022-09-09T18:24:15.587Z,95232.47
2022-09-09T18:26:48.558Z,95235.16
2022-09-09T18:29:23.185Z,95241.06
2022-09-09T18:32:00.901Z,95237.22
2022-09-09T18:34:30.123Z,95245.19
2022-09-09T18:37:19.524Z,95252.88
2022-09-09T18:39:53.455Z,95258.38
2022-09-09T18:42:22.618Z,95261.53
2022-09-09T18:44:50.815Z,95269.88
2022-09-09T18:47:18.567Z,95278.59
2022-09-09T18:49:47.343Z,95282.06
2022-09-09T18:52:15.624Z,95275.81
2022-09-09T18:54:52.656Z,95270.91
2022-09-09T18:57:21.933Z,95269.75
2022-09-09T18:59:50.412Z,95269.69
2022-09-09T19:02:21.674Z,95267.38
2022-09-09T19:04:50.230Z,95271.94
2022-09-09T19:07:19.518Z,95287.38
2022-09-09T19:09:49.384Z,95293.34
2022-09-09T19:12:17.407Z,95296.91
2022-09-09T19:14:46.585Z,95300.00
2022-09-09T19:17:14.372Z,95305.28
2022-09-09T19:19:43.694Z,95355.06
2022-09-09T19:22:12.877Z,95360.31
2022-09-09T19:24:40.659Z,95354.06
2022-09-09T19:27:11.319Z,95345.25
2022-09-09T19:29:42.673Z,95356.94
2022-09-09T19:33:13.053Z,95357.91
2022-09-09T19:35:01.884Z,95356.44
2022-09-09T19:37:34.017Z,95360.72
2022-09-09T19:40:06.848Z,95366.31
2022-09-09T19:42:34.977Z,95359.09
2022-09-09T19:45:09.795Z,95356.50
2022-09-09T19:47:39.462Z,95363.91
2022-09-09T19:50:08.601Z,95369.78
2022-09-09T19:52:36.463Z,95376.25
2022-09-09T19:55:09.280Z,95373.75
2022-09-09T19:57:36.959Z,95369.44
2022-09-09T20:00:05.657Z,95378.97
2022-09-09T20:02:33.944Z,95380.16
2022-09-09T20:05:03.298Z,95377.47
2022-09-09T20:07:33.470Z,95378.97
2022-09-09T20:10:03.357Z,95371.22
2022-09-09T20:12:33.473Z,95372.09
2022-09-09T20:15:01.766Z,95390.34
2022-09-09T20:21:01.929Z,95387.91
2022-09-09T20:23:41.046Z,95386.75
2022-09-09T20:26:20.052Z,95372.44
2022-09-09T20:28:53.037Z,95380.19
2022-09-09T20:31:31.801Z,95383.78
2022-09-09T20:34:05.300Z,95372.63
2022-09-09T20:39:46.212Z,95365.25
2022-09-09T20:42:39.622Z,95380.03
2022-09-09T20:45:50.554Z,95375.94
2022-09-09T20:48:33.813Z,95380.31
2022-09-09T20:51:13.207Z,95377.88
2022-09-09T20:53:43.752Z,95378.88
2022-09-09T20:56:12.049Z,95361.63
2022-09-09T20:58:43.584Z,95373.75
2022-09-09T21:01:18.419Z,95377.28
2022-09-09T21:03:46.913Z,95378.19
2022-09-09T21:06:15.769Z,95383.72
2022-09-09T21:08:45.727Z,95378.84
2022-09-09T21:11:14.080Z,95378.84
2022-09-09T21:13:42.286Z,95384.88
2022-09-09T21:16:13.976Z,95388.22
2022-09-09T21:18:42.073Z,95398.25
2022-09-09T21:21:09.709Z,95390.72
2022-09-09T21:23:37.494Z,95395.81
2022-09-09T21:26:07.654Z,95412.28
2022-09-09T21:28:36.496Z,95421.97
2022-09-09T21:31:05.592Z,95426.75
2022-09-09T21:33:34.804Z,95430.41
2022-09-09T21:36:07.662Z,95435.50
2022-09-09T21:38:36.277Z,95445.03
2022-09-09T21:41:06.860Z,95435.34
2022-09-09T21:43:34.853Z,95435.66
2022-09-09T21:46:07.871Z,95444.13
2022-09-09T21:48:35.678Z,95437.59
2022-09-09T21:51:05.741Z,95442.19
2022-09-09T21:53:33.769Z,95431.84
2022-09-09T21:56:02.809Z,95436.25
2022-09-09T21:58:31.791Z,95435.22
2022-09-09T22:00:59.350Z,95442.91
2022-09-09T22:03:29.721Z,95443.75
2022-09-09T22:05:59.003Z,95439.28
2022-09-09T22:08:26.634Z,95438.97
2022-09-09T22:10:54.251Z,95439.41
2022-09-09T22:13:21.842Z,95443.50
2022-09-09T22:15:50.977Z,95440.69
2022-09-09T22:18:19.370Z,95438.72
2022-09-09T22:20:47.932Z,95429.88
2022-09-09T22:23:16.441Z,95431.03
2022-09-09T22:25:44.727Z,95424.78
2022-09-09T22:28:12.441Z,95426.25
2022-09-09T22:30:39.989Z,95421.13
2022-09-09T22:33:09.686Z,95430.28
2022-09-09T22:35:42.349Z,95431.72
2022-09-09T22:38:10.227Z,95431.13
2022-09-09T22:40:38.382Z,95432.09
2022-09-09T22:43:07.939Z,95430.28
2022-09-09T22:45:35.822Z,95436.22
2022-09-09T22:48:04.829Z,95434.56
2022-09-09T22:50:41.916Z,95441.84
2022-09-09T22:53:14.087Z,95439.56
2022-09-09T22:55:42.152Z,95431.16
2022-09-09T22:58:10.344Z,95430.13
2022-09-09T23:00:41.774Z,95434.06
2022-09-09T23:03:09.511Z,95430.25
2022-09-09T23:05:38.565Z,95436.03
2022-09-09T23:08:07.192Z,95440.78
2022-09-09T23:10:34.823Z,95425.41
2022-09-09T23:13:06.740Z,95431.19
2022-09-09T23:15:34.375Z,95436.31
2022-09-09T23:18:02.035Z,95428.25
2022-09-09T23:20:29.850Z,95429.84
2022-09-09T23:25:35.835Z,95419.59
2022-09-09T23:28:04.329Z,95422.78
2022-09-09T23:30:31.937Z,95420.38
2022-09-09T23:32:59.592Z,95422.41
2022-09-09T23:35:27.150Z,95413.59
2022-09-09T23:37:54.794Z,95419.97
2022-09-09T23:40:23.136Z,95420.44
2022-09-09T23:42:52.394Z,95417.50
2022-09-09T23:45:20.016Z,95419.41
2022-09-09T23:47:47.811Z,95424.34
2022-09-09T23:50:16.750Z,95415.66
2022-09-09T23:52:44.527Z,95413.22
2022-09-09T23:55:12.251Z,95411.81
2022-09-09T23:57:39.878Z,95411.88
